KAVL/AVL METAR and TAF weather

Enter ICAO airport designator
Station Type Date Time Source
KAVL METAR 2019/10/18 10:54 UTC NOAA

KAVL 181054Z 34007KT 10SM CLR 05/02 A3004 RMK AO2 SLP168 T00500017 $


Station Type Date Time Source
KAVL Decoded METAR 2019/10/18 10:54 UTC NOAA

ASHEVILLE REGIONAL AIRPORT, NC, United States (KAVL) 35-26N 82-32W 670M
Oct 18, 2019 - 06:54 AM EDT / 2019.10.18 1054 UTC
Wind: from the NNW (340 degrees) at 8 MPH (7 KT):0
Visibility: 10 mile(s):0
Sky conditions: clear
Temperature: 41.0 F (5.0 C)
Dew Point: 35.1 F (1.7 C)
Relative Humidity: 79%
Pressure (altimeter): 30.04 in. Hg (1017 hPa)
ob: KAVL 181054Z 34007KT 10SM CLR 05/02 A3004 RMK AO2 SLP168 T00500017
cycle: 11

Station Type Date Time Source
KAVL TAF 2019/10/18 06:34 UTC NOAA

TAF KAVL 180532Z 1806/1906 34010KT P6SM SKC
FM180900 35004KT P6SM FEW250
FM181900 13007KT P6SM FEW250

Example: see airport list